createdAt,value
2017-10-24T00:01:05.380Z,98.90
2017-10-24T00:03:33.680Z,105.80
2017-10-24T00:06:01.983Z,101.47
2017-10-24T00:08:30.319Z,107.63
2017-10-24T00:10:58.627Z,98.80
2017-10-24T00:13:26.948Z,94.70
2017-10-24T00:15:56.040Z,93.70
2017-10-24T00:18:24.372Z,103.37
2017-10-24T00:20:52.679Z,95.53
2017-10-24T00:23:21.002Z,100.73
2017-10-24T00:25:50.092Z,94.50
2017-10-24T00:28:18.408Z,106.07
2017-10-24T00:30:46.708Z,97.33
2017-10-24T00:33:15.018Z,97.63
2017-10-24T00:35:43.332Z,100.53
2017-10-24T00:38:11.647Z,96.97
2017-10-24T00:40:39.954Z,94.40
2017-10-24T00:43:08.280Z,97.07
2017-10-24T00:45:37.352Z,96.50
2017-10-24T00:48:05.658Z,100.90
2017-10-24T00:50:34.746Z,92.27
2017-10-24T00:53:03.812Z,90.37
2017-10-24T00:55:32.160Z,94.80
2017-10-24T00:58:00.486Z,107.93
2017-10-24T01:00:29.401Z,92.10
2017-10-24T01:02:57.717Z,92.13
2017-10-24T01:05:26.058Z,86.50
2017-10-24T01:07:54.379Z,94.73
2017-10-24T01:10:22.684Z,84.77
2017-10-24T01:12:50.993Z,82.30
2017-10-24T01:15:19.296Z,80.50
2017-10-24T01:17:48.383Z,77.77
2017-10-24T01:20:16.709Z,79.67
2017-10-24T01:22:45.008Z,73.30
2017-10-24T01:25:13.337Z,76.47
2017-10-24T01:27:41.664Z,80.10
2017-10-24T01:30:10.024Z,76.23
2017-10-24T01:32:38.339Z,71.13
2017-10-24T01:35:06.660Z,67.97
2017-10-24T01:37:34.989Z,73.77
2017-10-24T01:40:03.313Z,76.00
2017-10-24T01:42:31.676Z,79.83
2017-10-24T01:45:00.773Z,73.30
2017-10-24T01:47:29.081Z,86.53
2017-10-24T01:49:57.398Z,88.30
2017-10-24T01:52:25.727Z,89.00
2017-10-24T01:54:54.042Z,88.67
2017-10-24T01:57:23.119Z,100.87
2017-10-24T01:59:51.448Z,101.57
2017-10-24T02:02:19.748Z,103.83
2017-10-24T02:04:48.045Z,115.07
2017-10-24T02:07:16.353Z,99.33
2017-10-24T02:09:44.686Z,98.43
2017-10-24T02:12:13.018Z,107.00
2017-10-24T02:14:41.350Z,112.33
2017-10-24T02:17:09.692Z,110.43
2017-10-24T02:19:38.011Z,108.20
2017-10-24T02:22:06.343Z,123.20
2017-10-24T02:24:34.689Z,108.67
2017-10-24T02:27:03.003Z,124.53
2017-10-24T02:29:31.329Z,129.17
2017-10-24T02:31:59.650Z,129.37
2017-10-24T02:34:28.735Z,127.37
2017-10-24T02:36:57.053Z,123.77
2017-10-24T02:39:25.389Z,127.87
2017-10-24T02:41:53.723Z,130.90
2017-10-24T02:44:22.045Z,126.23
2017-10-24T02:46:50.383Z,124.77
2017-10-24T02:49:18.713Z,138.00
2017-10-24T02:51:47.074Z,132.27
2017-10-24T02:54:16.155Z,134.23
2017-10-24T02:56:44.477Z,146.23
2017-10-24T02:59:12.797Z,153.17
2017-10-24T03:01:41.107Z,145.47
2017-10-24T03:04:09.527Z,148.03
2017-10-24T03:06:37.851Z,136.77
2017-10-24T03:09:06.184Z,133.93
2017-10-24T03:11:34.483Z,136.03
2017-10-24T03:14:02.803Z,128.00
2017-10-24T03:16:31.130Z,135.97
2017-10-24T03:18:59.443Z,119.40
2017-10-24T03:21:28.527Z,128.03
2017-10-24T03:23:56.849Z,133.77
2017-10-24T03:26:25.177Z,120.57
2017-10-24T03:28:53.482Z,118.10
2017-10-24T03:31:21.817Z,102.90
2017-10-24T03:33:50.920Z,111.00
2017-10-24T03:36:19.247Z,112.57
2017-10-24T03:38:47.576Z,121.10
2017-10-24T03:41:16.678Z,119.67
2017-10-24T03:43:45.752Z,97.57
2017-10-24T03:46:14.065Z,103.10
2017-10-24T03:48:43.166Z,107.47
2017-10-24T03:51:12.252Z,112.37
2017-10-24T03:53:41.344Z,105.47
2017-10-24T03:56:09.648Z,96.47
2017-10-24T03:58:37.965Z,108.80
2017-10-24T04:01:06.298Z,98.40
2017-10-24T04:03:35.377Z,79.60
2017-10-24T04:06:03.706Z,78.30
2017-10-24T04:08:32.011Z,75.33
2017-10-24T04:11:00.331Z,93.13
2017-10-24T04:13:28.653Z,79.10
2017-10-24T04:15:56.976Z,81.87
2017-10-24T04:18:25.335Z,78.77
2017-10-24T04:20:53.634Z,90.77
2017-10-24T04:23:21.966Z,88.03
2017-10-24T04:25:50.319Z,88.57
2017-10-24T04:28:19.425Z,94.60
2017-10-24T04:30:48.528Z,89.87
2017-10-24T04:33:17.605Z,92.43
2017-10-24T04:35:45.934Z,85.20
2017-10-24T04:38:14.259Z,65.47
2017-10-24T04:40:42.570Z,67.73
2017-10-24T04:43:10.895Z,71.03
2017-10-24T04:45:39.214Z,72.40
2017-10-24T04:48:07.537Z,77.60
2017-10-24T04:50:35.866Z,76.53
2017-10-24T04:53:04.208Z,92.90
2017-10-24T04:55:32.522Z,95.30
2017-10-24T04:58:00.844Z,79.43
2017-10-24T05:00:29.948Z,82.70
2017-10-24T05:02:59.017Z,81.27
2017-10-24T05:05:27.359Z,81.77
2017-10-24T05:07:55.673Z,88.30
2017-10-24T05:10:23.983Z,78.23
2017-10-24T05:12:52.312Z,68.33
2017-10-24T05:15:20.607Z,84.73
2017-10-24T05:17:48.940Z,61.33
2017-10-24T05:20:18.012Z,68.23
2017-10-24T05:22:46.323Z,74.40
2017-10-24T05:25:15.410Z,72.93
2017-10-24T05:27:43.732Z,74.03
2017-10-24T05:30:12.058Z,58.53
2017-10-24T05:32:40.372Z,61.43
2017-10-24T05:35:09.460Z,57.73
2017-10-24T05:37:38.541Z,66.50
2017-10-24T05:40:06.885Z,52.93
2017-10-24T05:42:35.204Z,52.90
2017-10-24T05:45:03.514Z,51.50
2017-10-24T05:47:32.587Z,53.67
2017-10-24T05:50:00.897Z,47.87
2017-10-24T05:52:29.208Z,46.13
2017-10-24T05:54:57.543Z,48.50
2017-10-24T05:57:25.882Z,46.10
2017-10-24T05:59:54.213Z,39.80
2017-10-24T06:02:23.342Z,39.50
2017-10-24T06:04:51.735Z,34.50
2017-10-24T06:07:20.164Z,36.97
2017-10-24T06:09:48.477Z,31.40
2017-10-24T06:12:16.820Z,38.17
2017-10-24T06:14:45.138Z,38.87
2017-10-24T06:17:14.220Z,39.87
2017-10-24T06:19:43.352Z,43.40
2017-10-24T06:22:11.668Z,46.03
2017-10-24T06:24:39.973Z,44.10
2017-10-24T06:27:08.304Z,43.60
2017-10-24T06:29:36.626Z,49.20
2017-10-24T06:32:04.943Z,42.37
2017-10-24T06:34:34.074Z,42.40
2017-10-24T06:37:02.390Z,47.63
2017-10-24T06:39:30.695Z,40.13
2017-10-24T06:41:59.779Z,41.90
2017-10-24T06:44:28.087Z,46.20
2017-10-24T06:46:57.163Z,42.43
2017-10-24T06:49:25.478Z,48.67
2017-10-24T06:51:53.807Z,54.23
2017-10-24T06:54:22.132Z,46.37
2017-10-24T06:56:51.222Z,47.90
2017-10-24T06:59:20.321Z,57.87
2017-10-24T07:01:49.383Z,37.20
2017-10-24T07:04:17.704Z,41.83
2017-10-24T07:06:46.792Z,45.83
2017-10-24T07:09:15.110Z,45.37
2017-10-24T07:11:43.448Z,54.07
2017-10-24T07:14:11.775Z,43.57
2017-10-24T07:16:40.123Z,48.90
2017-10-24T07:19:08.455Z,45.50
2017-10-24T07:21:36.776Z,49.30
2017-10-24T07:24:05.098Z,53.93
2017-10-24T07:26:33.412Z,49.10
2017-10-24T07:29:01.750Z,53.20
2017-10-24T07:31:30.824Z,54.03
2017-10-24T07:33:59.132Z,61.50
2017-10-24T07:36:28.205Z,62.57
2017-10-24T07:38:56.523Z,65.07
2017-10-24T07:41:24.852Z,61.20
2017-10-24T07:43:53.171Z,62.73
2017-10-24T07:46:22.258Z,71.83
2017-10-24T07:48:50.569Z,67.37
2017-10-24T07:51:18.876Z,63.93
2017-10-24T07:53:47.190Z,56.87
2017-10-24T07:56:15.498Z,63.60
2017-10-24T07:58:44.580Z,68.50
2017-10-24T08:01:12.920Z,67.10
2017-10-24T08:03:41.226Z,68.00
2017-10-24T08:06:10.150Z,72.80
2017-10-24T08:08:39.235Z,60.40
2017-10-24T08:11:07.562Z,71.80
2017-10-24T08:13:35.877Z,64.87
2017-10-24T08:16:04.183Z,63.70
2017-10-24T08:18:32.578Z,66.30
2017-10-24T08:21:01.675Z,66.67
2017-10-24T08:23:30.751Z,62.20
2017-10-24T08:25:59.065Z,61.73
2017-10-24T08:28:28.156Z,59.17
2017-10-24T08:30:57.255Z,53.13
2017-10-24T08:33:26.430Z,54.03
2017-10-24T08:35:54.743Z,56.50
2017-10-24T08:38:23.829Z,49.83
2017-10-24T08:40:52.139Z,48.63
2017-10-24T08:43:20.482Z,50.80
2017-10-24T08:45:48.796Z,49.83
2017-10-24T08:48:17.885Z,53.50
2017-10-24T08:50:46.970Z,46.63
2017-10-24T08:53:15.269Z,52.70
2017-10-24T08:55:44.339Z,44.10
2017-10-24T08:58:12.664Z,50.30
2017-10-24T09:00:41.541Z,54.47
2017-10-24T09:03:10.080Z,48.00
2017-10-24T09:05:39.348Z,49.77
2017-10-24T09:08:23.951Z,56.70
2017-10-24T09:14:05.398Z,94.70
2017-10-24T09:16:44.358Z,60.70
2017-10-24T09:32:58.331Z,52.67
2017-10-24T09:35:26.717Z,56.53
2017-10-24T09:37:55.076Z,54.97
2017-10-24T09:40:23.503Z,55.53
2017-10-24T09:42:51.833Z,50.53
2017-10-24T09:45:20.939Z,41.10
2017-10-24T09:47:50.046Z,43.77
2017-10-24T09:50:18.353Z,38.83
2017-10-24T09:52:46.668Z,35.50
2017-10-24T09:55:14.979Z,31.83
2017-10-24T09:57:43.294Z,33.07
2017-10-24T10:00:11.662Z,31.63
2017-10-24T10:02:40.026Z,32.13
2017-10-24T10:05:09.131Z,33.00
2017-10-24T10:07:38.225Z,28.30
2017-10-24T10:10:06.543Z,31.43
2017-10-24T10:12:38.629Z,34.80
2017-10-24T10:15:06.938Z,28.60
2017-10-24T10:17:35.271Z,36.10
2017-10-24T10:20:03.585Z,33.13
2017-10-24T10:22:31.965Z,33.60
2017-10-24T10:25:00.309Z,31.67
2017-10-24T10:27:28.667Z,32.40
2017-10-24T10:29:57.752Z,35.90
2017-10-24T10:32:26.867Z,45.20
2017-10-24T10:34:55.966Z,40.10
2017-10-24T10:37:25.038Z,44.33
2017-10-24T10:39:53.373Z,37.30
2017-10-24T10:42:21.730Z,45.67
2017-10-24T10:44:50.829Z,49.00
2017-10-24T10:47:20.187Z,45.10
2017-10-24T10:49:48.506Z,50.50
2017-10-24T10:52:17.616Z,42.80
2017-10-24T10:54:45.938Z,46.73
2017-10-24T10:57:14.608Z,48.87
2017-10-24T10:59:42.989Z,55.80
2017-10-24T11:02:11.306Z,46.10
2017-10-24T11:04:39.615Z,50.10
2017-10-24T11:07:08.737Z,52.70
2017-10-24T11:09:37.081Z,45.70
2017-10-24T11:12:05.429Z,46.40
2017-10-24T11:14:33.760Z,44.97
2017-10-24T11:17:02.869Z,35.23
2017-10-24T11:19:31.977Z,35.80
2017-10-24T11:22:00.316Z,33.50
2017-10-24T11:24:28.662Z,28.70
2017-10-24T11:26:56.983Z,25.63
2017-10-24T11:29:25.422Z,22.33
2017-10-24T11:31:53.739Z,16.20
2017-10-24T11:34:22.069Z,13.10
2017-10-24T11:36:50.405Z,13.93
2017-10-24T11:39:18.755Z,11.93
2017-10-24T11:41:47.068Z,11.10
2017-10-24T11:44:15.415Z,8.40
2017-10-24T11:46:43.755Z,7.63
2017-10-24T11:49:12.965Z,9.37
2017-10-24T11:51:42.074Z,7.77
2017-10-24T11:54:10.394Z,9.00
2017-10-24T11:56:38.742Z,11.40
2017-10-24T11:59:07.054Z,10.67
2017-10-24T12:01:35.369Z,16.77
2017-10-24T12:04:03.704Z,11.73
2017-10-24T12:06:32.036Z,8.60
2017-10-24T12:09:01.244Z,6.53
2017-10-24T12:11:30.335Z,7.53
2017-10-24T12:13:58.677Z,8.47
2017-10-24T12:16:27.026Z,7.40
2017-10-24T12:18:55.351Z,8.57
2017-10-24T12:21:23.687Z,7.03
2017-10-24T12:23:51.998Z,9.20
2017-10-24T12:26:20.314Z,8.03
2017-10-24T12:28:48.654Z,10.17
2017-10-24T12:31:16.977Z,11.10
2017-10-24T12:33:45.301Z,6.80
2017-10-24T12:36:13.644Z,9.77
2017-10-24T12:38:41.950Z,10.60
2017-10-24T12:41:11.055Z,8.50
2017-10-24T12:43:40.176Z,5.93
2017-10-24T12:49:10.797Z,8.50
2017-10-24T12:51:39.140Z,10.13
2017-10-24T12:54:07.454Z,8.77
2017-10-24T12:56:35.783Z,10.80
2017-10-24T12:59:18.979Z,9.00
2017-10-24T13:01:47.336Z,15.30
2017-10-24T13:04:15.807Z,14.23
2017-10-24T13:06:44.903Z,9.93
2017-10-24T13:09:14.438Z,12.47
2017-10-24T13:11:42.794Z,14.27
2017-10-24T13:14:11.101Z,19.53
2017-10-24T13:16:39.589Z,9.37
2017-10-24T13:19:07.904Z,15.57
2017-10-24T13:21:36.240Z,12.03
2017-10-24T13:24:04.561Z,14.10
2017-10-24T13:26:32.924Z,8.17
2017-10-24T13:29:01.223Z,8.53
2017-10-24T13:31:29.572Z,11.00
2017-10-24T13:33:57.880Z,13.70
2017-10-24T13:36:26.194Z,11.00
2017-10-24T13:38:56.653Z,12.60
2017-10-24T13:41:25.714Z,9.93
2017-10-24T13:43:54.035Z,12.50
2017-10-24T13:46:23.130Z,10.00
2017-10-24T13:48:52.213Z,10.83
2017-10-24T13:51:20.523Z,11.40
2017-10-24T13:53:48.902Z,14.40
2017-10-24T13:56:17.251Z,13.83
2017-10-24T13:58:45.580Z,10.60
2017-10-24T14:01:13.939Z,13.17
2017-10-24T14:03:43.034Z,14.30
2017-10-24T14:06:17.687Z,9.57
2017-10-24T14:08:51.550Z,11.57
2017-10-24T14:11:20.040Z,12.33
2017-10-24T14:13:48.390Z,14.10
2017-10-24T14:16:16.701Z,15.70
2017-10-24T14:18:45.044Z,17.17
2017-10-24T14:21:13.366Z,11.67
2017-10-24T14:23:41.679Z,17.03
2017-10-24T14:26:10.018Z,18.73
2017-10-24T14:28:38.346Z,18.00
2017-10-24T14:31:06.649Z,14.60
2017-10-24T14:33:34.989Z,12.60
2017-10-24T14:36:04.080Z,20.10
2017-10-24T14:38:33.200Z,18.53
2017-10-24T14:41:01.542Z,12.37
2017-10-24T14:43:29.875Z,16.50
2017-10-24T14:45:58.220Z,16.23
2017-10-24T14:48:26.571Z,12.53
2017-10-24T14:50:54.933Z,11.37
2017-10-24T14:53:23.255Z,13.17
2017-10-24T14:55:51.642Z,17.27
2017-10-24T14:58:19.989Z,13.40
2017-10-24T15:00:48.311Z,11.73
2017-10-24T15:03:16.640Z,11.73
2017-10-24T15:05:44.978Z,12.07
2017-10-24T15:08:13.306Z,12.97
2017-10-24T15:10:41.690Z,14.17
2017-10-24T15:13:10.052Z,12.07
2017-10-24T15:15:42.875Z,20.13
2017-10-24T15:18:11.192Z,12.17
2017-10-24T15:20:40.261Z,15.33
2017-10-24T15:23:08.575Z,8.97
2017-10-24T15:25:37.673Z,11.60
2017-10-24T15:28:06.877Z,9.00
2017-10-24T15:30:35.973Z,14.63
2017-10-24T15:33:05.070Z,14.13
2017-10-24T15:35:33.401Z,10.90
2017-10-24T15:38:01.727Z,13.70
2017-10-24T15:40:30.815Z,12.97
2017-10-24T15:42:59.119Z,9.40
2017-10-24T15:45:28.186Z,12.93
2017-10-24T15:47:56.488Z,15.90
2017-10-24T15:50:24.791Z,14.07
2017-10-24T15:52:53.188Z,12.10
2017-10-24T15:55:21.514Z,11.60
2017-10-24T15:57:49.842Z,12.50
2017-10-24T16:00:18.155Z,12.37
2017-10-24T16:02:46.586Z,10.70
2017-10-24T16:05:15.673Z,12.30
2017-10-24T16:07:43.975Z,11.43
2017-10-24T16:10:13.068Z,16.13
2017-10-24T16:12:42.201Z,12.30
2017-10-24T16:15:10.875Z,17.90
2017-10-24T16:17:39.197Z,14.20
2017-10-24T16:20:07.525Z,14.97
2017-10-24T16:22:36.621Z,12.50
2017-10-24T16:25:05.698Z,20.13
2017-10-24T16:27:34.031Z,13.80
2017-10-24T16:30:02.350Z,13.47
2017-10-24T16:32:30.685Z,14.47
2017-10-24T16:34:59.015Z,15.67
2017-10-24T16:37:27.343Z,12.87
2017-10-24T16:39:55.693Z,13.87
2017-10-24T16:42:24.896Z,14.13
2017-10-24T16:44:53.993Z,14.33
2017-10-24T16:47:22.311Z,15.27
2017-10-24T16:49:50.645Z,15.20
2017-10-24T16:52:18.975Z,12.47
2017-10-24T16:54:47.278Z,11.33
2017-10-24T16:57:15.604Z,13.70
2017-10-24T16:59:44.706Z,11.57
2017-10-24T17:02:13.087Z,12.57
2017-10-24T17:04:42.204Z,12.70
2017-10-24T17:07:11.283Z,9.73
2017-10-24T17:09:40.443Z,15.13
2017-10-24T17:12:08.763Z,13.20
2017-10-24T17:14:37.854Z,9.47
2017-10-24T17:17:06.168Z,10.63
2017-10-24T17:19:34.487Z,7.13
2017-10-24T17:22:02.807Z,12.90
2017-10-24T17:24:31.894Z,11.67
2017-10-24T17:27:00.209Z,11.17
2017-10-24T17:29:29.297Z,10.10
2017-10-24T17:31:58.369Z,7.70
2017-10-24T17:34:26.675Z,10.20
2017-10-24T17:36:55.806Z,11.10
2017-10-24T17:39:24.108Z,8.20
2017-10-24T17:41:52.433Z,9.03
2017-10-24T17:44:21.545Z,9.40
2017-10-24T17:46:50.635Z,9.30
2017-10-24T17:49:19.757Z,12.90
2017-10-24T17:51:48.071Z,8.20
2017-10-24T17:54:16.402Z,11.87
2017-10-24T17:56:45.546Z,10.03
2017-10-24T17:59:13.888Z,12.07
2017-10-24T18:01:42.991Z,11.57
2017-10-24T18:04:12.083Z,12.77
2017-10-24T18:06:40.414Z,23.73
2017-10-24T18:09:08.790Z,30.63
2017-10-24T18:11:37.097Z,9.17
2017-10-24T18:17:08.685Z,11.23
2017-10-24T18:19:37.843Z,11.90
2017-10-24T18:22:06.163Z,9.97
2017-10-24T18:24:34.461Z,8.97
2017-10-24T18:27:02.790Z,11.47
2017-10-24T18:29:31.099Z,11.77
2017-10-24T18:31:59.413Z,10.20
2017-10-24T18:34:27.744Z,13.53
2017-10-24T18:36:56.074Z,7.13
2017-10-24T18:39:24.393Z,10.20
2017-10-24T18:41:53.110Z,10.43
2017-10-24T18:44:21.471Z,10.63
2017-10-24T18:46:49.805Z,9.27
2017-10-24T18:49:18.133Z,10.60
2017-10-24T18:51:46.445Z,8.43
2017-10-24T18:54:15.541Z,9.23
2017-10-24T18:56:44.610Z,5.83
2017-10-24T18:59:12.912Z,7.70
2017-10-24T19:01:41.233Z,10.73
2017-10-24T19:04:09.546Z,9.17
2017-10-24T19:06:37.872Z,12.90
2017-10-24T19:09:06.943Z,10.30
2017-10-24T19:11:35.257Z,7.73
2017-10-24T19:14:04.360Z,12.03
2017-10-24T19:16:33.455Z,8.37
2017-10-24T19:19:02.541Z,8.90
2017-10-24T19:21:31.620Z,8.53
2017-10-24T19:23:59.996Z,7.97
2017-10-24T19:26:28.326Z,8.13
2017-10-24T19:28:56.646Z,10.27
2017-10-24T19:31:24.959Z,9.53
2017-10-24T19:33:53.314Z,14.13
2017-10-24T19:36:21.647Z,12.23
2017-10-24T19:38:49.979Z,12.20
2017-10-24T19:41:18.334Z,16.57
2017-10-24T19:43:46.713Z,9.53
2017-10-24T19:46:15.104Z,13.83
2017-10-24T19:48:43.417Z,10.10
2017-10-24T19:51:11.754Z,11.23
2017-10-24T19:53:40.084Z,11.47
2017-10-24T19:56:08.387Z,18.93
2017-10-24T19:58:37.527Z,18.07
2017-10-24T20:01:05.888Z,16.10
2017-10-24T20:03:34.195Z,18.73
2017-10-24T20:06:02.569Z,10.90
2017-10-24T20:08:30.884Z,16.17
2017-10-24T20:11:00.008Z,21.13
2017-10-24T20:13:29.153Z,15.77
2017-10-24T20:15:57.502Z,13.70
2017-10-24T20:18:26.603Z,14.70
2017-10-24T20:20:54.988Z,18.70
2017-10-24T20:23:23.368Z,10.90
2017-10-24T20:25:52.438Z,12.80
2017-10-24T20:28:20.767Z,14.87
2017-10-24T20:30:49.079Z,9.37
2017-10-24T20:33:17.406Z,24.07
2017-10-24T20:35:46.506Z,12.43
2017-10-24T20:38:15.982Z,14.00
2017-10-24T20:40:44.323Z,19.00
2017-10-24T20:43:12.650Z,14.03
2017-10-24T20:45:40.957Z,9.70
2017-10-24T20:48:10.076Z,11.43
2017-10-24T20:50:38.399Z,10.40
2017-10-24T20:53:06.727Z,15.40
2017-10-24T20:55:35.811Z,11.17
2017-10-24T20:58:04.927Z,11.03
2017-10-24T21:00:34.022Z,14.23
2017-10-24T21:03:03.092Z,9.03
2017-10-24T21:05:31.395Z,10.67
2017-10-24T21:08:00.485Z,14.83
2017-10-24T21:10:29.577Z,13.67
2017-10-24T21:12:57.940Z,13.00
2017-10-24T21:15:26.241Z,15.43
2017-10-24T21:17:54.592Z,12.00
2017-10-24T21:20:22.928Z,20.40
2017-10-24T21:22:51.988Z,13.87
2017-10-24T21:25:20.344Z,14.43
2017-10-24T21:27:48.668Z,12.43
2017-10-24T21:30:17.784Z,15.07
2017-10-24T21:32:46.863Z,12.60
2017-10-24T21:35:15.166Z,12.50
2017-10-24T21:37:43.516Z,14.97
2017-10-24T21:40:11.842Z,10.80
2017-10-24T21:42:40.137Z,13.23
2017-10-24T21:45:08.460Z,16.10
2017-10-24T21:47:36.998Z,14.47
2017-10-24T21:50:05.335Z,11.57
2017-10-24T21:52:33.666Z,13.33
2017-10-24T21:55:01.977Z,14.03
2017-10-24T21:57:30.304Z,12.80
2017-10-24T21:59:58.625Z,15.37
2017-10-24T22:02:26.957Z,17.07
2017-10-24T22:04:56.036Z,12.00
2017-10-24T22:07:24.344Z,22.60
2017-10-24T22:09:53.439Z,14.50
2017-10-24T22:12:21.773Z,13.80
2017-10-24T22:14:50.076Z,11.77
2017-10-24T22:17:18.442Z,13.03
2017-10-24T22:19:46.767Z,13.53
2017-10-24T22:22:15.874Z,10.80
2017-10-24T22:24:44.277Z,14.80
2017-10-24T22:27:12.589Z,11.97
2017-10-24T22:29:40.907Z,11.13
2017-10-24T22:32:10.006Z,11.37
2017-10-24T22:34:39.088Z,10.80
2017-10-24T22:37:07.393Z,7.20
2017-10-24T22:39:36.448Z,8.37
2017-10-24T22:42:04.773Z,12.23
2017-10-24T22:44:33.833Z,8.63
2017-10-24T22:47:02.160Z,10.10
2017-10-24T22:49:30.479Z,8.73
2017-10-24T22:51:58.798Z,8.87
2017-10-24T22:54:27.127Z,12.23
2017-10-24T22:56:55.470Z,6.10
2017-10-24T22:59:24.569Z,9.03
2017-10-24T23:01:53.668Z,6.60
2017-10-24T23:04:22.742Z,8.53
2017-10-24T23:06:51.042Z,7.33
2017-10-24T23:09:20.128Z,8.07
2017-10-24T23:11:48.435Z,11.10
2017-10-24T23:14:17.521Z,7.70
2017-10-24T23:16:45.829Z,10.83
2017-10-24T23:19:14.149Z,9.53
2017-10-24T23:21:42.492Z,7.57
2017-10-24T23:24:10.828Z,7.30
2017-10-24T23:26:39.165Z,12.73
2017-10-24T23:29:07.484Z,10.80
2017-10-24T23:31:35.874Z,9.80
2017-10-24T23:34:04.191Z,9.40
2017-10-24T23:36:32.496Z,8.20
2017-10-24T23:39:00.843Z,8.83
2017-10-24T23:41:29.937Z,14.67
2017-10-24T23:43:59.093Z,10.57
2017-10-24T23:46:27.418Z,11.17
2017-10-24T23:48:56.497Z,9.90
2017-10-24T23:51:24.825Z,13.30
2017-10-24T23:53:53.141Z,10.20
2017-10-24T23:56:21.467Z,8.50
2017-10-24T23:58:50.568Z,17.10
